KJKA Airport Information

Runway Information
Runway 09 Length 6962 ft width 100 ft
Elevation 14 ft Threshold 463 ft Heading 90
Runway 27 Length 6962 ft Width 100 ft
Elevation 16 ft Threshold 0 ft Heading 270
Runway 17 Length 3599 ft width 70 ft
Elevation 16 ft Threshold 0 ft Heading 175
Runway 35 Length 3599 ft Width 70 ft
Elevation 11 ft Threshold 0 ft Heading 355
Airport Frequencies
Type A/D Name PENSACOLA Frequency 120.05 MHZ
Type AWOS Name AWOS 3 Frequency 134.525 MHZ
Type CLD Name CLNC DEL Frequency 124.55 MHZ
Type UNIC Name CTAF/UNICO Frequency 122.7 MHZ
Airport Navaids
Airport Weather Information & NOTAM
ADDS - METARS form results

(2246 UTC 15 November 2018)
Data provider http://aviationweather.gov/metar/data/
 
METAR text: KJKA 152235Z AUTO 32005KT 10SM CLR 09/00 A3018 RMK AO2 T00850001
Conditions at: KJKA (GULF SHORES , AL, US) observed 2235 UTC 15 November 2018
Temperature: 8.5°C (47°F)
Dewpoint: 0.1°C (32°F) [RH = 55%]
Pressure (altimeter): 30.18 inches Hg (1022.1 mb)
Winds: from the NW (320 degrees) at 6 MPH (5 knots; 2.6 m/s)
Visibility: 10 or more miles (16+ km)
Ceiling: at least 12,000 feet AGL
Clouds: sky clear below 12,000 feet AGL
Weather: automated observation with no human augmentation;
there may or may not be significant weather present at this time

METAR text: KJKA 152215Z AUTO 31008KT 290V360 10SM CLR 09/00 A3018 RMK AO2 T00910001
Conditions at: KJKA (GULF SHORES , AL, US) observed 2215 UTC 15 November 2018
Temperature: 9.1°C (48°F)
Dewpoint: 0.1°C (32°F) [RH = 53%]
Pressure (altimeter): 30.18 inches Hg (1022.1 mb)
Winds: from the NW (310 degrees) at 9 MPH (8 knots; 4.1 m/s)
Visibility: 10 or more miles (16+ km)
Ceiling: at least 12,000 feet AGL
Clouds: sky clear below 12,000 feet AGL
Weather: automated observation with no human augmentation;
there may or may not be significant weather present at this time

METAR text: KJKA 152155Z AUTO 33007KT 290V360 10SM CLR 09/00 A3018 RMK AO2 P0001 T00931001
Conditions at: KJKA (GULF SHORES , AL, US) observed 2155 UTC 15 November 2018
Temperature: 9.3°C (49°F)
Dewpoint: -0.1°C (32°F) [RH = 52%]
Pressure (altimeter): 30.18 inches Hg (1022.1 mb)
Winds: from the NNW (330 degrees) at 8 MPH (7 knots; 3.6 m/s)
Visibility: 10 or more miles (16+ km)
Ceiling: at least 12,000 feet AGL
Clouds: sky clear below 12,000 feet AGL
Weather: automated observation with no human augmentation;
there may or may not be significant weather present at this time